Diba, Oman

6:53 PM GST on August 31, 2016 (GMT +0400)
Ras Al Khaimah International | | Change Station

Elev 102 ft 25.61 °N, 55.94 °E | Updated 53 minutes ago

Clear
Clear
97 °F
Feels Like 107 °F
N
9
Wind Variable Wind from NNW

Today
High -- | Low -- °F
--% Chance of Precip.
Yesterday
High -- | Low -- °F
Precip. -- in
Pressure 29.53 in
Visibility -9999.0 miles
Clouds
Heat Index 107 °F
Dew Point 73 °F
Humidity 47%
Rainfall 0.00 in
Snow Depth Not available.
5:55 AM 6:35 PM
Waning Crescent, 1% visible
METAR OMRK 311400Z 33008KT CAVOK 36/23 Q1000 A2954
Pressure 29.53 in
Visibility -9999.0 miles
Clouds
Heat Index 107 °F
Dew Point 73 °F
Humidity 47%
Rainfall 0.00 in
Snow Depth Not available.
5:55 AM 6:35 PM
Waning Crescent, 1% visible
METAR OMRK 311400Z 33008KT CAVOK 36/23 Q1000 A2954

10-Day Weather Forecast

No radar image for this location.
×

Almanac

Astronomy

Aug. 31, 2016 Rise Set
Actual Time
Civil Twilight
Nautical Twilight
Astronomical Twilight
Moon
Length of Visible Light
Length of Day
Tomorrow will be .
, % of the Moon is Illuminated

Today's Extremes

Country Highs Country Lows

Community

WunderPhotos

Upload Photos

1,936,093 photos uploaded!

WunderBlog® & News

Nearby

Air Quality

  Air Quality AQ Index Pollutant
Not available.

Snow Depth

Station Depth Elevation

Earthquake Activity

City Distance Mag. Time & Date
Minimum magnitude displayed is 2.5.

Coastal Water Temperatures

Place Temperature

Stations

Nearby Weather Stations

Station Location Temp. Windchill Dew Point Humidity Wind Precip. Elev Updated Type